Time;durP1;ratioP1;P1;durP2;ratioP2;P2;SDS_P1;SDS_P2;PMS_P1;PMS_P2;Temp;Humidity;BMP_temperature;BMP_pressure;BME280_temperature;BME280_humidity;BME280_pressure;Samples;Min_cycle;Max_cycle;Signal;HPM_P1;HPM_P2
2021/09/27 00:01:57;;;;;;;4.10;3.73;;;22.90;66.30;;;;;;5070446;28;20197;-64
2021/09/27 00:04:27;;;;;;;4.13;3.70;;;22.90;66.20;;;;;;5058841;28;20209;-64
2021/09/27 00:06:57;;;;;;;4.30;4.00;;;22.90;66.20;;;;;;5053911;28;20262;-64
2021/09/27 00:09:32;;;;;;;4.00;3.70;;;22.80;66.10;;;;;;5040865;28;20194;-64
2021/09/27 00:12:05;;;;;;;4.27;3.83;;;22.80;66.10;;;;;;5050755;28;20200;-65
2021/09/27 00:14:34;;;;;;;4.37;3.87;;;22.80;66.10;;;;;;5051558;28;20639;-63
2021/09/27 00:17:07;;;;;;;3.93;3.63;;;22.80;66.00;;;;;;5049746;28;20198;-64
2021/09/27 00:19:37;;;;;;;4.37;4.07;;;22.80;66.00;;;;;;5053856;28;20850;-65
2021/09/27 00:22:09;;;;;;;3.93;3.53;;;22.80;66.00;;;;;;5036104;28;20190;-64
2021/09/27 00:24:40;;;;;;;3.97;3.67;;;22.80;65.90;;;;;;5052288;28;20193;-64
2021/09/27 00:27:10;;;;;;;4.23;3.83;;;22.80;66.00;;;;;;5053426;28;20823;-64
2021/09/27 00:29:46;;;;;;;3.83;3.53;;;22.80;65.90;;;;;;5061944;28;20205;-64
2021/09/27 00:32:15;;;;;;;3.70;3.40;;;22.80;65.80;;;;;;5062788;28;20334;-64
2021/09/27 00:34:45;;;;;;;4.87;3.70;;;22.80;66.50;;;;;;5071302;28;20242;-64
2021/09/27 00:37:14;;;;;;;4.03;3.67;;;22.80;65.70;;;;;;5053932;28;20200;-64
2021/09/27 00:39:44;;;;;;;3.90;3.60;;;22.80;65.80;;;;;;5064915;28;20643;-64
2021/09/27 00:42:13;;;;;;;4.03;3.73;;;22.80;65.80;;;;;;5057307;28;20220;-64
2021/09/27 00:44:42;;;;;;;4.10;3.70;;;22.80;65.80;;;;;;5067968;28;20202;-63
2021/09/27 00:47:11;;;;;;;4.27;3.73;;;22.80;65.80;;;;;;5055682;28;20716;-64
2021/09/27 00:49:42;;;;;;;3.90;3.60;;;22.80;65.80;;;;;;5044882;28;20218;-64
2021/09/27 00:52:13;;;;;;;4.00;3.57;;;22.80;65.70;;;;;;5058705;28;20799;-65
2021/09/27 00:54:45;;;;;;;3.43;3.13;;;22.80;65.70;;;;;;5067598;28;20212;-64
2021/09/27 00:57:20;;;;;;;4.13;3.60;;;22.80;65.80;;;;;;5055614;28;20198;-65
2021/09/27 00:59:59;;;;;;;4.90;3.87;;;22.80;65.70;;;;;;5056414;28;20273;-65
2021/09/27 01:02:30;;;;;;;3.80;3.50;;;22.80;65.70;;;;;;5046356;28;20198;-65
2021/09/27 01:05:05;;;;;;;4.10;3.70;;;22.80;65.70;;;;;;5070705;28;20323;-65
2021/09/27 01:07:59;;;;;;;4.73;4.33;;;22.80;65.60;;;;;;5073175;28;20604;-64
2021/09/27 01:10:49;;;;;;;3.43;3.20;;;22.80;65.60;;;;;;5056476;28;20233;-64
2021/09/27 01:14:16;;;;;;;4.23;3.37;;;22.80;65.50;;;;;;5071025;28;20733;-65
2021/09/27 01:16:57;;;;;;;3.80;3.50;;;22.80;65.60;;;;;;5010024;28;20584;-65
2021/09/27 01:19:53;;;;;;;3.80;3.40;;;22.80;65.50;;;;;;4991459;28;20653;-64
2021/09/27 01:22:54;;;;;;;4.23;3.83;;;22.70;65.40;;;;;;5030495;28;20213;-65
2021/09/27 01:25:45;;;;;;;3.63;3.30;;;22.80;65.60;;;;;;5054378;28;20218;-64
2021/09/27 01:28:46;;;;;;;4.17;3.80;;;22.70;65.60;;;;;;5073029;28;20210;-65
2021/09/27 01:31:51;;;;;;;3.70;3.40;;;22.70;65.60;;;;;;5071047;28;20248;-65
2021/09/27 01:34:46;;;;;;;3.97;3.67;;;22.70;65.60;;;;;;5060504;28;20621;-65
2021/09/27 01:37:41;;;;;;;3.60;3.30;;;22.70;65.70;;;;;;5059560;28;20199;-65
2021/09/27 01:40:26;;;;;;;3.97;3.67;;;22.70;65.60;;;;;;5061696;28;20695;-64
2021/09/27 01:43:21;;;;;;;3.90;3.60;;;22.70;65.50;;;;;;5067567;28;20182;-65
2021/09/27 01:46:17;;;;;;;3.70;3.40;;;22.70;65.70;;;;;;5068948;28;20194;-65
2021/09/27 01:49:07;;;;;;;3.67;3.37;;;22.70;65.70;;;;;;5067655;28;20202;-64
2021/09/27 01:52:08;;;;;;;3.57;3.27;;;22.70;65.50;;;;;;5064913;28;20221;-65
2021/09/27 01:55:11;;;;;;;3.40;3.20;;;22.70;65.60;;;;;;5071611;28;20220;-65
2021/09/27 01:58:05;;;;;;;3.80;3.50;;;22.70;65.60;;;;;;5065785;28;20227;-64
2021/09/27 02:00:40;;;;;;;3.80;3.50;;;22.70;65.60;;;;;;5059775;28;20741;-65
2021/09/27 02:03:22;;;;;;;3.80;3.50;;;22.70;65.60;;;;;;5057441;28;20225;-64
2021/09/27 02:06:21;;;;;;;3.40;3.20;;;22.70;65.60;;;;;;5062683;28;20238;-64
2021/09/27 02:08:58;;;;;;;3.73;3.43;;;22.70;65.60;;;;;;5069154;28;20252;-65
2021/09/27 02:11:36;;;;;;;3.43;3.23;;;22.70;65.60;;;;;;5060473;28;20528;-64
2021/09/27 02:14:16;;;;;;;3.80;3.50;;;22.70;65.60;;;;;;5052581;28;20212;-64
2021/09/27 02:17:02;;;;;;;3.77;3.40;;;22.70;65.60;;;;;;5072226;28;20201;-65
2021/09/27 02:19:56;;;;;;;3.20;3.00;;;22.70;65.60;;;;;;5064741;28;20213;-65
2021/09/27 02:23:05;;;;;;;3.90;3.60;;;22.70;65.60;;;;;;5065860;28;20206;-65
2021/09/27 02:25:49;;;;;;;3.60;3.30;;;22.70;65.60;;;;;;5062275;28;20230;-64
2021/09/27 02:28:22;;;;;;;3.70;3.40;;;22.70;65.60;;;;;;5053443;28;20216;-64
2021/09/27 02:31:21;;;;;;;3.50;3.20;;;22.70;65.50;;;;;;5064515;28;20823;-64
2021/09/27 02:33:51;;;;;;;3.60;3.30;;;22.70;65.50;;;;;;5053620;28;20202;-64
2021/09/27 02:37:00;;;;;;;3.70;3.37;;;22.70;65.50;;;;;;5067768;28;20251;-65
2021/09/27 02:39:37;;;;;;;3.90;3.60;;;22.70;65.50;;;;;;5040167;28;20230;-64
2021/09/27 02:42:36;;;;;;;3.40;3.20;;;22.60;65.40;;;;;;5060111;28;20214;-64
2021/09/27 02:45:07;;;;;;;3.20;2.90;;;22.60;65.40;;;;;;5045738;28;20240;-63
2021/09/27 02:47:53;;;;;;;3.33;3.13;;;22.70;65.50;;;;;;5070578;28;20244;-63
2021/09/27 02:50:27;;;;;;;3.80;3.50;;;22.70;65.40;;;;;;5054195;28;20216;-63
2021/09/27 02:52:59;;;;;;;4.03;3.17;;;22.60;65.40;;;;;;5044749;28;20639;-65
2021/09/27 02:56:08;;;;;;;3.37;3.07;;;22.70;65.40;;;;;;5051490;28;20205;-64
2021/09/27 02:58:59;;;;;;;3.50;3.20;;;22.60;65.30;;;;;;5055557;28;20553;-64
2021/09/27 03:02:05;;;;;;;3.43;3.23;;;22.60;65.30;;;;;;5069954;28;20457;-64
2021/09/27 03:05:09;;;;;;;3.90;3.60;;;22.60;65.30;;;;;;5067904;28;20213;-64
2021/09/27 03:08:19;;;;;;;3.60;3.30;;;22.70;65.30;;;;;;5054601;28;20483;-64
2021/09/27 03:11:20;;;;;;;3.70;3.40;;;22.60;65.30;;;;;;5069382;28;20202;-63
2021/09/27 03:14:29;;;;;;;3.47;3.17;;;22.60;65.30;;;;;;5068665;28;20674;-64
2021/09/27 03:17:10;;;;;;;3.57;3.27;;;22.60;65.20;;;;;;5071288;28;20225;-64
2021/09/27 03:19:59;;;;;;;3.37;3.10;;;22.60;65.20;;;;;;5067863;28;20205;-64
2021/09/27 03:23:06;;;;;;;3.63;3.33;;;22.60;65.20;;;;;;5064517;28;20193;-64
2021/09/27 03:26:10;;;;;;;2.90;2.70;;;22.60;65.20;;;;;;5052648;28;20612;-64
2021/09/27 03:29:03;;;;;;;3.53;3.23;;;22.60;65.20;;;;;;5068000;28;20201;-64
2021/09/27 03:32:07;;;;;;;3.40;3.10;;;22.60;65.20;;;;;;5064675;28;20209;-64
2021/09/27 03:35:19;;;;;;;3.93;3.57;;;22.60;65.10;;;;;;5070617;28;20735;-64
2021/09/27 03:38:16;;;;;;;3.53;3.23;;;22.60;65.20;;;;;;5053040;28;20797;-64
2021/09/27 03:41:06;;;;;;;3.50;3.20;;;22.60;65.10;;;;;;5051563;28;20317;-64
2021/09/27 03:44:50;;;;;;;3.40;3.20;;;22.60;65.10;;;;;;5069119;28;20221;-64
2021/09/27 03:47:50;;;;;;;3.30;3.10;;;22.60;65.10;;;;;;5012045;28;20225;-64
2021/09/27 03:50:59;;;;;;;3.47;3.17;;;22.60;65.10;;;;;;5053073;28;20201;-65
2021/09/27 03:54:08;;;;;;;3.20;2.97;;;22.60;65.10;;;;;;5071281;28;20627;-64
2021/09/27 03:56:56;;;;;;;3.23;3.03;;;22.60;65.10;;;;;;5018555;28;20217;-64
2021/09/27 03:59:52;;;;;;;3.40;3.10;;;22.60;65.10;;;;;;5055269;28;20192;-65
2021/09/27 04:02:34;;;;;;;3.47;3.17;;;22.60;65.10;;;;;;5055796;28;20251;-64
2021/09/27 04:05:45;;;;;;;3.50;3.20;;;22.60;65.10;;;;;;5051862;28;20716;-64
2021/09/27 04:08:47;;;;;;;3.00;2.80;;;22.60;65.10;;;;;;5071264;28;20185;-64
2021/09/27 04:11:37;;;;;;;3.70;3.40;;;22.50;65.00;;;;;;5070759;28;20197;-64
2021/09/27 04:14:28;;;;;;;3.87;3.30;;;22.60;65.00;;;;;;5048111;28;20206;-64
2021/09/27 04:17:44;;;;;;;3.33;3.10;;;22.50;65.00;;;;;;5072305;28;20189;-64
2021/09/27 04:20:49;;;;;;;3.30;3.10;;;22.50;65.00;;;;;;5062483;28;20233;-64
2021/09/27 04:23:55;;;;;;;3.50;3.23;;;22.50;64.90;;;;;;5059215;28;20202;-64
2021/09/27 04:27:02;;;;;;;2.97;2.77;;;22.50;64.90;;;;;;5068921;28;20675;-64
2021/09/27 04:30:04;;;;;;;3.40;3.10;;;22.50;64.90;;;;;;5067566;28;20193;-64
2021/09/27 04:33:08;;;;;;;3.30;3.10;;;22.50;64.90;;;;;;5038786;28;20197;-64
2021/09/27 04:36:16;;;;;;;3.43;3.20;;;22.50;64.90;;;;;;5068261;28;20201;-64
2021/09/27 04:38:51;;;;;;;3.47;3.17;;;22.50;64.90;;;;;;5070152;28;20536;-64
2021/09/27 04:41:45;;;;;;;3.63;3.33;;;22.50;64.80;;;;;;5063324;28;20241;-64
2021/09/27 04:44:49;;;;;;;3.40;3.10;;;22.50;64.80;;;;;;5067477;28;20422;-64
2021/09/27 04:47:54;;;;;;;3.10;2.90;;;22.50;64.80;;;;;;5045455;28;20325;-64
2021/09/27 04:50:50;;;;;;;3.40;3.10;;;22.50;64.80;;;;;;5048734;28;20202;-64
2021/09/27 04:53:53;;;;;;;3.30;3.00;;;22.50;64.80;;;;;;5042921;28;20608;-64
2021/09/27 04:56:45;;;;;;;4.00;3.60;;;22.50;64.80;;;;;;5063914;28;20227;-65
2021/09/27 04:59:47;;;;;;;3.40;3.10;;;22.50;64.80;;;;;;5047780;28;20669;-64
2021/09/27 05:02:44;;;;;;;3.40;3.13;;;22.50;64.80;;;;;;5047291;28;20253;-64
2021/09/27 05:05:26;;;;;;;3.33;3.10;;;22.50;64.80;;;;;;5039474;28;20194;-64
2021/09/27 05:08:33;;;;;;;3.40;3.10;;;22.50;64.80;;;;;;5036388;28;20217;-64
2021/09/27 05:11:41;;;;;;;3.47;3.17;;;22.50;64.80;;;;;;5047817;28;20202;-64
2021/09/27 05:14:31;;;;;;;3.53;3.23;;;22.50;64.80;;;;;;5055809;28;20592;-64
2021/09/27 05:17:16;;;;;;;3.80;3.50;;;22.50;64.90;;;;;;5051745;28;20207;-64
2021/09/27 05:20:37;;;;;;;3.77;3.30;;;22.50;64.30;;;;;;5052469;28;20222;-64
2021/09/27 05:23:40;;;;;;;4.13;3.73;;;22.50;64.90;;;;;;5049595;28;20565;-65
2021/09/27 05:26:38;;;;;;;3.70;3.40;;;22.50;64.90;;;;;;5060185;28;20216;-63
2021/09/27 05:29:30;;;;;;;3.73;3.33;;;22.50;65.00;;;;;;5052920;28;20201;-64
2021/09/27 05:32:17;;;;;;;3.90;3.60;;;22.50;64.90;;;;;;5059425;28;20276;-63
2021/09/27 05:35:16;;;;;;;4.00;3.53;;;22.50;64.90;;;;;;5048619;28;20237;-63
2021/09/27 05:38:22;;;;;;;4.93;4.47;;;22.50;65.00;;;;;;5056833;28;20194;-64
2021/09/27 05:41:10;;;;;;;5.80;5.17;;;22.50;65.50;;;;;;5049442;28;20214;-64
2021/09/27 05:44:06;;;;;;;6.30;5.70;;;22.60;65.70;;;;;;5053158;28;20186;-64
2021/09/27 05:47:19;;;;;;;7.80;6.50;;;22.60;65.70;;;;;;5055058;28;20237;-64
2021/09/27 05:50:26;;;;;;;7.27;6.57;;;22.60;65.60;;;;;;5057362;28;20194;-64
2021/09/27 05:53:29;;;;;;;7.93;6.10;;;22.70;65.40;;;;;;5071531;28;20205;-63
2021/09/27 05:56:29;;;;;;;6.40;5.80;;;22.60;65.50;;;;;;5071973;28;20639;-64
2021/09/27 05:59:34;;;;;;;7.60;6.80;;;22.60;65.40;;;;;;5070138;28;20197;-64
2021/09/27 06:02:42;;;;;;;6.10;5.50;;;22.70;65.40;;;;;;5068869;28;20186;-66
2021/09/27 06:05:19;;;;;;;6.90;6.20;;;22.70;65.20;;;;;;5070215;28;20198;-66
2021/09/27 06:08:28;;;;;;;8.17;6.73;;;22.70;64.90;;;;;;5059932;28;20197;-65
2021/09/27 06:11:20;;;;;;;8.60;6.77;;;22.70;64.90;;;;;;5071359;28;20219;-64
2021/09/27 06:13:53;;;;;;;7.60;6.90;;;22.70;64.60;;;;;;5063071;28;20247;-64
2021/09/27 06:16:54;;;;;;;22.67;9.03;;;22.80;64.70;;;;;;5070691;28;20214;-64
2021/09/27 06:20:10;;;;;;;20.47;9.90;;;22.80;64.70;;;;;;5069718;28;20234;-64
2021/09/27 06:23:01;;;;;;;13.77;8.67;;;22.80;64.40;;;;;;5017491;28;20213;-65
2021/09/27 06:25:49;;;;;;;8.20;7.40;;;22.80;64.40;;;;;;5070793;28;20186;-65
2021/09/27 06:28:51;;;;;;;9.90;7.27;;;22.70;64.20;;;;;;5071226;28;20190;-66
2021/09/27 06:31:38;;;;;;;15.13;7.47;;;22.70;64.30;;;;;;5071604;28;20529;-65
2021/09/27 06:34:21;;;;;;;12.33;7.97;;;22.70;64.60;;;;;;5070064;28;20216;-66
2021/09/27 06:36:49;;;;;;;8.77;6.93;;;22.70;64.80;;;;;;5071774;28;20213;-66
2021/09/27 06:39:27;;;;;;;8.83;7.97;;;22.70;65.70;;;;;;5054553;28;20245;-66
2021/09/27 06:41:57;;;;;;;8.37;7.57;;;22.70;65.00;;;;;;5035143;28;20223;-64
2021/09/27 06:44:29;;;;;;;9.17;7.33;;;22.70;64.70;;;;;;5056495;28;20201;-64
2021/09/27 06:47:00;;;;;;;8.30;7.50;;;22.70;64.60;;;;;;5067115;28;20305;-65
2021/09/27 06:49:33;;;;;;;9.83;7.20;;;22.70;64.50;;;;;;5062216;28;20221;-64
2021/09/27 06:52:03;;;;;;;7.23;6.50;;;22.70;64.40;;;;;;5070484;28;20213;-65
2021/09/27 06:54:35;;;;;;;8.00;6.60;;;22.70;64.30;;;;;;5074501;28;20209;-65
2021/09/27 06:57:05;;;;;;;7.40;6.17;;;22.80;64.40;;;;;;5068047;28;20707;-64
2021/09/27 06:59:36;;;;;;;7.87;6.60;;;22.80;65.10;;;;;;5037414;28;20230;-64
2021/09/27 07:02:20;;;;;;;7.83;6.77;;;22.80;64.30;;;;;;5062777;28;20191;-67
2021/09/27 07:04:52;;;;;;;8.10;7.03;;;22.80;64.10;;;;;;5069446;28;20189;-67
2021/09/27 07:07:24;;;;;;;8.43;7.40;;;22.80;64.60;;;;;;5071346;28;20193;-70
2021/09/27 07:09:55;;;;;;;7.83;7.03;;;22.90;64.30;;;;;;5052616;28;20363;-69
2021/09/27 07:12:25;;;;;;;7.73;7.00;;;22.80;64.40;;;;;;5069733;28;20560;-68
2021/09/27 07:14:53;;;;;;;7.53;6.83;;;22.80;64.20;;;;;;5052028;28;20305;-68
2021/09/27 07:17:38;;;;;;;8.23;7.30;;;22.80;64.10;;;;;;5069542;28;20229;-69
2021/09/27 07:20:13;;;;;;;8.30;6.87;;;22.80;64.20;;;;;;5052098;28;20202;-68
2021/09/27 07:22:42;;;;;;;10.20;6.97;;;22.80;64.30;;;;;;5055500;28;20236;-66
2021/09/27 07:25:12;;;;;;;7.53;6.83;;;22.90;64.20;;;;;;5052790;28;20263;-68
2021/09/27 07:27:44;;;;;;;7.33;6.53;;;22.90;64.30;;;;;;5052230;28;20193;-68
2021/09/27 07:30:16;;;;;;;7.70;6.90;;;22.90;64.50;;;;;;5054081;28;20205;-68
2021/09/27 07:32:48;;;;;;;9.77;6.80;;;22.90;63.90;;;;;;5055478;28;20200;-66
2021/09/27 07:35:23;;;;;;;7.57;6.87;;;22.90;64.20;;;;;;5036103;28;20201;-66
2021/09/27 07:37:55;;;;;;;8.80;7.17;;;22.90;64.20;;;;;;5051514;28;20653;-66
2021/09/27 07:40:29;;;;;;;8.00;7.27;;;22.90;63.90;;;;;;5053315;28;20217;-66
2021/09/27 07:42:59;;;;;;;7.87;7.07;;;23.00;64.30;;;;;;5047489;28;20193;-66
2021/09/27 07:45:33;;;;;;;8.00;6.80;;;23.00;64.00;;;;;;5053165;28;20623;-67
2021/09/27 07:48:16;;;;;;;8.20;6.70;;;23.00;64.20;;;;;;5050054;28;20348;-68
2021/09/27 07:50:54;;;;;;;7.90;6.80;;;23.00;64.10;;;;;;5069427;28;20635;-67
2021/09/27 07:53:25;;;;;;;6.90;6.20;;;23.00;63.90;;;;;;5068143;28;20209;-68
2021/09/27 07:55:57;;;;;;;8.27;6.80;;;23.00;63.90;;;;;;5071228;28;20204;-67
2021/09/27 07:58:26;;;;;;;7.70;7.00;;;23.00;63.70;;;;;;5059866;28;20632;-66
2021/09/27 08:00:55;;;;;;;7.63;6.93;;;23.00;63.70;;;;;;5055431;28;20245;-68
2021/09/27 08:03:27;;;;;;;7.67;6.90;;;23.00;63.90;;;;;;5071344;28;20189;-69
2021/09/27 08:05:59;;;;;;;7.70;6.97;;;23.00;63.80;;;;;;5060212;28;20197;-68
2021/09/27 08:08:30;;;;;;;7.50;6.50;;;23.10;63.70;;;;;;5071783;28;20202;-67
2021/09/27 08:10:59;;;;;;;8.50;6.20;;;23.10;63.70;;;;;;5071204;28;20621;-67
2021/09/27 08:13:30;;;;;;;9.93;6.70;;;23.10;63.60;;;;;;5056092;28;20197;-69
2021/09/27 08:16:02;;;;;;;7.13;6.40;;;23.10;63.60;;;;;;5048174;28;20197;-67
2021/09/27 08:18:34;;;;;;;6.97;6.30;;;23.20;63.30;;;;;;5038716;28;20668;-68
2021/09/27 08:21:12;;;;;;;7.57;6.40;;;23.20;63.50;;;;;;5072185;28;20217;-69
2021/09/27 08:23:49;;;;;;;6.90;5.90;;;23.20;63.40;;;;;;5067158;28;20679;-68
2021/09/27 08:26:20;;;;;;;7.43;6.73;;;23.20;63.20;;;;;;5064037;28;20205;-69
2021/09/27 08:28:57;;;;;;;6.50;5.90;;;23.20;63.50;;;;;;5070152;28;20206;-70
2021/09/27 08:31:27;;;;;;;6.77;6.00;;;23.20;63.00;;;;;;5069702;28;20202;-69
2021/09/27 08:33:58;;;;;;;6.63;5.90;;;23.20;62.90;;;;;;5066882;28;20285;-70
2021/09/27 08:36:28;;;;;;;6.37;5.77;;;23.30;62.90;;;;;;5066700;28;20642;-69
2021/09/27 08:38:59;;;;;;;6.53;5.93;;;23.30;62.90;;;;;;5054990;28;20198;-69
2021/09/27 08:41:52;;;;;;;6.23;5.63;;;23.30;62.90;;;;;;5050404;28;20225;-68
2021/09/27 08:45:03;;;;;;;6.13;5.53;;;23.30;62.70;;;;;;5075368;28;20263;-68
2021/09/27 08:48:18;;;;;;;6.00;5.50;;;23.30;62.80;;;;;;5046994;28;20234;-68
2021/09/27 08:50:47;;;;;;;6.50;5.90;;;23.30;62.80;;;;;;5039527;28;20218;-67
2021/09/27 08:53:35;;;;;;;5.90;5.27;;;23.30;62.80;;;;;;5053697;28;20195;-67
2021/09/27 08:56:18;;;;;;;6.87;5.47;;;23.30;62.70;;;;;;5037640;28;20456;-64
2021/09/27 08:59:09;;;;;;;6.50;5.80;;;23.30;62.70;;;;;;5046218;28;20934;-65
2021/09/27 09:02:19;;;;;;;6.20;5.60;;;23.30;62.70;;;;;;5050760;28;20223;-70
2021/09/27 09:05:04;;;;;;;6.37;5.77;;;23.30;62.80;;;;;;5038102;28;20873;-70
2021/09/27 09:08:00;;;;;;;6.43;4.93;;;23.30;63.10;;;;;;5051034;28;20206;-71
2021/09/27 09:10:45;;;;;;;5.20;4.70;;;23.30;62.60;;;;;;5044834;28;20194;-70
2021/09/27 09:13:43;;;;;;;7.50;5.03;;;23.30;62.70;;;;;;5052130;28;20194;-71
2021/09/27 09:16:18;;;;;;;5.80;5.20;;;23.40;62.80;;;;;;5041935;28;20264;-69
2021/09/27 09:19:05;;;;;;;6.97;5.13;;;23.40;62.60;;;;;;5022652;28;20271;-69
2021/09/27 09:21:53;;;;;;;5.27;4.80;;;23.40;62.70;;;;;;5038552;28;20248;-68
2021/09/27 09:24:38;;;;;;;4.77;4.30;;;23.40;62.50;;;;;;5008323;28;20206;-70
2021/09/27 09:27:15;;;;;;;6.80;4.67;;;23.40;62.50;;;;;;5040695;28;20715;-70
2021/09/27 09:29:46;;;;;;;6.47;4.73;;;23.40;62.20;;;;;;5057481;28;20191;-71
2021/09/27 09:32:29;;;;;;;8.80;5.10;;;23.50;62.30;;;;;;5044427;28;20202;-69
2021/09/27 09:35:20;;;;;;;7.50;4.70;;;23.50;62.40;;;;;;5044306;28;20607;-69
2021/09/27 09:38:11;;;;;;;5.23;4.60;;;23.50;62.50;;;;;;5053587;28;20660;-69
2021/09/27 09:40:54;;;;;;;5.33;4.30;;;23.50;62.20;;;;;;5023250;28;20228;-69
2021/09/27 09:43:28;;;;;;;5.47;4.90;;;23.50;62.30;;;;;;5035311;28;20203;-70
2021/09/27 09:46:31;;;;;;;5.60;4.63;;;23.60;62.30;;;;;;5035272;28;20198;-70
2021/09/27 09:49:10;;;;;;;4.90;4.13;;;23.60;62.30;;;;;;5049820;28;20658;-71
2021/09/27 09:51:41;;;;;;;4.17;3.60;;;23.60;62.00;;;;;;5055422;28;20647;-69
2021/09/27 09:54:23;;;;;;;4.60;3.70;;;23.60;62.00;;;;;;5072995;28;20198;-70
2021/09/27 09:57:27;;;;;;;3.90;3.50;;;23.60;61.90;;;;;;5072315;28;20783;-70
2021/09/27 10:00:07;;;;;;;5.40;3.97;;;23.60;61.90;;;;;;5072531;28;20213;-70
2021/09/27 10:02:46;;;;;;;4.77;3.70;;;23.60;61.90;;;;;;5073438;28;20690;-70
2021/09/27 10:05:36;;;;;;;4.50;4.10;;;23.60;62.10;;;;;;5053430;28;20603;-67
2021/09/27 10:08:18;;;;;;;4.07;3.40;;;23.70;61.90;;;;;;5055015;28;20233;-66
2021/09/27 10:11:08;;;;;;;4.80;3.50;;;23.70;62.00;;;;;;5055467;28;20190;-67
2021/09/27 10:13:56;;;;;;;4.90;3.47;;;23.70;62.00;;;;;;5072363;28;20631;-69
2021/09/27 10:16:48;;;;;;;4.40;2.83;;;23.70;61.90;;;;;;5068818;28;20287;-66
2021/09/27 10:19:33;;;;;;;5.03;3.43;;;23.70;62.00;;;;;;5066299;28;20237;-67
2021/09/27 10:22:08;;;;;;;3.70;3.40;;;23.70;61.90;;;;;;5075260;28;20293;-66
2021/09/27 10:24:59;;;;;;;3.60;3.30;;;23.60;61.90;;;;;;5060814;28;20213;-66
2021/09/27 10:27:49;;;;;;;4.70;3.67;;;23.60;61.80;;;;;;5072347;28;20209;-65
2021/09/27 10:30:33;;;;;;;4.47;3.30;;;23.60;61.90;;;;;;5063745;28;20195;-68
2021/09/27 10:33:14;;;;;;;3.60;3.23;;;23.50;62.00;;;;;;5057648;28;20220;-68
2021/09/27 10:36:17;;;;;;;3.37;3.07;;;23.50;62.00;;;;;;5054152;28;20204;-67
2021/09/27 10:39:00;;;;;;;3.40;2.80;;;23.50;62.20;;;;;;5069754;28;20223;-66
2021/09/27 10:41:29;;;;;;;3.23;2.90;;;23.50;62.00;;;;;;5071664;28;20205;-66
2021/09/27 10:44:26;;;;;;;3.27;2.90;;;23.40;62.00;;;;;;5070104;28;20300;-65
2021/09/27 10:47:02;;;;;;;4.10;2.57;;;23.40;62.20;;;;;;5058952;28;20222;-67
2021/09/27 10:49:37;;;;;;;4.57;2.83;;;23.40;62.10;;;;;;5069553;28;20245;-67
2021/09/27 10:52:36;;;;;;;6.27;3.10;;;23.40;62.10;;;;;;5054148;28;20252;-66
2021/09/27 10:55:14;;;;;;;3.73;2.80;;;23.40;62.30;;;;;;5056873;28;20201;-65
2021/09/27 10:58:03;;;;;;;4.83;2.37;;;23.40;62.10;;;;;;5065665;28;20205;-65
2021/09/27 11:00:50;;;;;;;2.70;2.27;;;23.40;62.30;;;;;;5071335;28;20667;-65
2021/09/27 11:03:43;;;;;;;3.10;2.70;;;23.40;62.30;;;;;;5070838;28;20228;-66
2021/09/27 11:07:04;;;;;;;2.72;2.20;;;23.40;62.30;;;;;;5070363;28;20415;-69
2021/09/27 11:09:38;;;;;;;2.50;2.20;;;23.40;62.50;;;;;;4989193;28;20665;-68
2021/09/27 11:12:25;;;;;;;2.50;2.30;;;23.40;62.40;;;;;;4977385;28;20244;-68
2021/09/27 11:15:22;;;;;;;2.20;2.00;;;23.50;62.30;;;;;;4973896;28;20269;-68
2021/09/27 11:18:34;;;;;;;2.50;2.30;;;23.50;62.00;;;;;;4973606;28;20496;-68
2021/09/27 11:21:37;;;;;;;2.83;2.00;;;23.50;61.80;;;;;;5060580;28;20201;-68
2021/09/27 11:24:17;;;;;;;3.17;2.30;;;23.60;61.60;;;;;;5059278;28;20686;-66
2021/09/27 11:27:14;;;;;;;2.70;2.20;;;23.70;61.70;;;;;;5050800;28;20194;-66
2021/09/27 11:29:51;;;;;;;3.10;2.43;;;23.70;61.70;;;;;;5071347;28;20694;-67
2021/09/27 11:32:46;;;;;;;2.23;2.03;;;23.70;61.60;;;;;;5069538;28;20398;-67
2021/09/27 11:35:44;;;;;;;3.67;2.20;;;23.70;61.40;;;;;;5053490;28;20209;-65
2021/09/27 11:38:38;;;;;;;4.50;2.37;;;23.70;61.30;;;;;;5067841;28;20292;-64
2021/09/27 11:41:22;;;;;;;4.03;2.60;;;23.70;61.20;;;;;;5056232;28;20233;-66
2021/09/27 11:44:13;;;;;;;5.23;2.70;;;23.70;61.40;;;;;;5068559;28;20695;-65
2021/09/27 11:47:10;;;;;;;3.87;2.70;;;23.60;61.50;;;;;;5069132;28;20209;-65
2021/09/27 11:50:12;;;;;;;4.20;2.70;;;23.60;61.60;;;;;;5063560;28;20205;-67
2021/09/27 11:52:50;;;;;;;3.27;2.43;;;23.50;61.50;;;;;;5056869;28;20509;-69
2021/09/27 11:55:40;;;;;;;4.10;2.33;;;23.60;61.80;;;;;;5070206;28;20196;-70
2021/09/27 11:58:49;;;;;;;3.63;2.27;;;23.70;61.90;;;;;;5069181;28;20201;-70
2021/09/27 12:01:39;;;;;;;3.33;2.33;;;23.70;61.90;;;;;;4965994;28;20646;-68
2021/09/27 12:04:46;;;;;;;4.77;2.63;;;23.80;62.00;;;;;;5067692;28;20216;-67
2021/09/27 12:07:21;;;;;;;3.03;2.30;;;23.80;61.80;;;;;;5069508;28;20190;-67
2021/09/27 12:10:03;;;;;;;2.77;2.00;;;23.90;61.60;;;;;;5034346;28;20635;-68
2021/09/27 12:12:50;;;;;;;3.57;2.17;;;23.90;61.40;;;;;;5070538;28;20263;-69
2021/09/27 12:15:24;;;;;;;3.67;2.30;;;23.90;61.10;;;;;;5051124;28;20206;-70
2021/09/27 12:18:00;;;;;;;2.13;1.97;;;24.00;61.10;;;;;;5049507;28;20564;-68
2021/09/27 12:20:39;;;;;;;2.30;2.00;;;24.00;61.10;;;;;;5067784;28;20212;-72
2021/09/27 12:23:11;;;;;;;4.70;2.10;;;24.00;60.90;;;;;;5053044;28;20711;-71
2021/09/27 12:25:42;;;;;;;3.77;2.20;;;24.00;60.70;;;;;;5035102;28;20202;-70
2021/09/27 12:28:26;;;;;;;2.70;2.03;;;24.00;60.60;;;;;;5049226;28;20189;-71
2021/09/27 12:31:02;;;;;;;3.60;2.07;;;24.00;60.60;;;;;;5044289;28;20207;-70
2021/09/27 12:33:41;;;;;;;2.53;2.10;;;24.10;60.50;;;;;;5050935;28;20247;-70
2021/09/27 12:36:22;;;;;;;2.17;1.70;;;24.10;60.40;;;;;;5069811;28;20197;-70
2021/09/27 12:38:57;;;;;;;2.30;1.67;;;24.10;60.40;;;;;;5052005;28;20203;-69
2021/09/27 12:41:32;;;;;;;2.03;1.77;;;24.10;60.10;;;;;;5068629;28;20213;-68
2021/09/27 12:44:16;;;;;;;1.90;1.70;;;24.20;59.90;;;;;;5067791;28;20204;-70
2021/09/27 12:46:50;;;;;;;2.00;1.80;;;24.20;60.00;;;;;;5060156;28;20213;-69
2021/09/27 12:49:31;;;;;;;2.83;1.90;;;24.20;59.90;;;;;;5068892;28;20197;-69
2021/09/27 12:52:18;;;;;;;3.43;1.80;;;24.20;59.80;;;;;;5069496;28;20198;-68
2021/09/27 12:54:54;;;;;;;3.73;2.00;;;24.20;59.90;;;;;;5037441;28;20197;-68
2021/09/27 12:57:25;;;;;;;2.77;1.90;;;24.20;59.90;;;;;;5068886;28;20204;-69
2021/09/27 12:59:58;;;;;;;2.33;1.70;;;24.30;59.70;;;;;;5067676;28;20721;-69
2021/09/27 13:02:39;;;;;;;1.90;1.63;;;24.30;59.70;;;;;;5068943;28;20290;-69
2021/09/27 13:05:19;;;;;;;2.60;1.90;;;24.30;59.60;;;;;;5036476;28;20194;-72
2021/09/27 13:07:51;;;;;;;2.80;1.80;;;24.30;59.60;;;;;;5067372;28;20744;-68
2021/09/27 13:10:32;;;;;;;1.97;1.47;;;24.30;59.60;;;;;;5048720;28;20189;-69
2021/09/27 13:13:28;;;;;;;2.10;1.60;;;24.30;59.50;;;;;;5066627;28;20208;-70
2021/09/27 13:16:09;;;;;;;2.03;1.80;;;24.30;59.70;;;;;;5069739;28;20193;-70
2021/09/27 13:18:46;;;;;;;2.13;1.93;;;24.30;59.60;;;;;;5066920;28;20305;-71
2021/09/27 13:21:43;;;;;;;2.63;1.50;;;24.30;59.30;;;;;;5052173;28;20204;-67
2021/09/27 13:24:29;;;;;;;3.03;1.77;;;24.40;59.50;;;;;;5070670;28;20212;-66
2021/09/27 13:27:14;;;;;;;3.27;1.73;;;24.30;59.50;;;;;;5054827;28;20204;-70
2021/09/27 13:29:48;;;;;;;3.87;1.63;;;24.40;59.50;;;;;;5052899;28;20213;-70
2021/09/27 13:32:28;;;;;;;1.70;1.60;;;24.40;59.40;;;;;;5052403;28;20599;-70
2021/09/27 13:35:22;;;;;;;2.70;1.47;;;24.40;59.30;;;;;;5072427;28;20247;-70
2021/09/27 13:38:08;;;;;;;2.40;1.50;;;24.40;59.30;;;;;;5053036;28;20647;-68
2021/09/27 13:40:58;;;;;;;3.17;1.47;;;24.40;58.90;;;;;;5070496;28;20242;-64
2021/09/27 13:43:39;;;;;;;2.73;1.63;;;24.50;59.30;;;;;;5070139;28;20221;-66
2021/09/27 13:46:11;;;;;;;1.93;1.40;;;24.40;59.30;;;;;;5071255;28;20224;-65
2021/09/27 13:48:41;;;;;;;1.70;1.60;;;24.40;59.50;;;;;;5067699;28;20245;-65
2021/09/27 13:51:14;;;;;;;2.90;2.03;;;24.40;59.20;;;;;;5052518;28;20641;-68
2021/09/27 13:53:49;;;;;;;1.80;1.63;;;24.30;59.30;;;;;;5068121;28;20202;-69
2021/09/27 13:56:26;;;;;;;2.00;1.80;;;24.40;59.20;;;;;;5052402;28;20210;-68
2021/09/27 13:58:53;;;;;;;2.30;1.90;;;24.30;59.10;;;;;;5051875;28;20753;-67
2021/09/27 14:01:24;;;;;;;2.47;2.03;;;24.30;59.10;;;;;;5054578;28;20248;-66
2021/09/27 14:03:58;;;;;;;2.47;1.70;;;24.30;59.40;;;;;;5066102;28;20221;-66
2021/09/27 14:06:28;;;;;;;2.20;1.90;;;24.30;59.40;;;;;;5066176;28;20842;-69
2021/09/27 14:08:57;;;;;;;2.47;1.50;;;24.30;59.20;;;;;;5060554;28;20251;-69
2021/09/27 14:11:31;;;;;;;2.37;1.70;;;24.30;59.30;;;;;;5050111;28;20255;-65
2021/09/27 14:14:05;;;;;;;2.30;1.60;;;24.30;59.20;;;;;;5063888;28;20198;-65
2021/09/27 14:16:34;;;;;;;5.03;1.97;;;24.30;59.20;;;;;;5070279;28;20201;-65
2021/09/27 14:19:04;;;;;;;4.20;1.57;;;24.30;59.00;;;;;;5062788;28;20203;-65
2021/09/27 14:21:33;;;;;;;1.77;1.53;;;24.20;59.10;;;;;;5072644;28;20202;-70